Sigfox identifier Datetime Temperature Humidity SNR
003BCF6B 2018-10-09 08:36:58 20.6 38 17.6
003BCF6B 2018-10-09 07:30:24 20.6 38 17.6
003BCF6B 2018-10-09 06:23:55 20.6 38 17.6
003BCF6B 2018-10-09 05:17:19 20.6 38 12.6
003BCF6B 2018-10-09 01:57:48 20.6 38 12.6
003BCF6B 2018-10-09 00:51:17 20.6 38 12.6
003BCF6B 2018-10-08 23:44:44 20.6 38 12.5
003BCF6B 2018-10-08 22:38:14 20.6 38 12.6
003BCF6B 2018-10-08 10:26:50 20.6 37 12.1
003BCF6B 2018-10-08 09:20:17 20.6 37 11.7
003BCF6B 2018-10-08 08:13:46 20.6 38 11.6
003BCF6B 2018-10-08 07:07:18 20.6 38 11.7
003BCF6B 2018-10-08 06:00:42 20.6 38 11.8
003BCF6B 2018-10-08 04:54:11 20.6 38 11.9
003BCF6B 2018-10-08 03:47:45 20.6 38 12
003BCF6B 2018-10-08 02:41:15 20.6 39 11.9
003BCF6B 2018-10-08 01:34:46 20.6 39 12
003BCF6B 2018-10-08 00:28:17 20.7 39 11.9
003BCF6B 2018-10-07 23:21:50 20.7 39 11.7
003BCF6B 2018-10-07 22:15:16 20.8 39 11.9
003BCF6B 2018-10-07 21:08:45 20.8 40 17.4
003BCF6B 2018-10-07 20:02:16 20.8 40 17.4
003BCF6B 2018-10-07 17:49:14 20.8 40 17.4
003BCF6B 2018-10-07 16:42:41 20.8 40 17.4
003BCF6B 2018-10-07 15:36:12 20.8 40 17.3
003BCF6B 2018-10-07 13:23:05 20.8 40 17.3
003BCF6B 2018-10-07 12:16:32 20.8 40 17.3
003BCF6B 2018-10-07 11:10:04 20.8 40 17.3
003BCF6B 2018-10-07 10:03:32 20.8 40 17.3
003BCF6B 2018-10-07 08:57:04 20.8 40 17.3
003BCF6B 2018-10-07 07:50:40 20.8 40 17.3
003BCF6B 2018-10-07 06:44:10 20.9 40 17.3
003BCF6B 2018-10-07 05:37:42 20.9 40 17.3
003BCF6B 2018-10-07 03:24:45 21 41 17.3
003BCF6B 2018-10-07 02:18:12 21 41 17.4
003BCF6B 2018-10-07 01:11:42 21 41 17.4
003BCF6B 2018-10-07 00:05:15 21 41 17.3
003BCF6B 2018-10-06 22:58:45 21 41 17.4
003BCF6B 2018-10-06 21:52:17 21 41 17.4
003BCF6B 2018-10-06 20:45:46 21 41 19.8
003BCF6B 2018-10-06 19:39:15 21 41 19.7
003BCF6B 2018-10-06 17:26:22 21 41 19.7
003BCF6B 2018-10-06 16:19:50 21 41 19.7
003BCF6B 2018-10-06 15:13:23 21 41 19.7
003BCF6B 2018-10-06 14:06:53 21 41 19.7
003BCF6B 2018-10-06 13:00:21 21 41 17.5
003BCF6B 2018-10-06 10:47:20 21 41 17.4
003BCF6B 2018-10-06 09:40:49 21.1 41 17.4
003BCF6B 2018-10-06 07:27:50 21.1 42 17.4
003BCF6B 2018-10-06 06:21:18 21.2 42 17.4
003BCF6B 2018-10-06 05:14:51 21.2 42 17.5
003BCF6B 2018-10-06 04:08:18 21.3 42 17.6
003BCF6B 2018-10-06 01:55:20 21.3 42 17.6
003BCF6B 2018-10-06 00:48:52 21.3 43 17.8
003BCF6B 2018-10-05 23:42:25 21.3 43 18
003BCF6B 2018-10-05 20:23:06 21.3 43 18.2
003BCF6B 2018-10-05 19:16:40 21.4 43 18.3
003BCF6B 2018-10-05 18:10:14 21.3 43 18.5
003BCF6B 2018-10-05 17:03:47 21.3 43 18.6
003BCF6B 2018-10-05 15:57:23 21.3 43 18.8
003BCF6B 2018-10-05 14:50:53 21.2 42 19
003BCF6B 2018-10-05 13:44:27 21 39 19.2
003BCF6B 2018-10-05 11:31:34 20.8 37 19.4
003BCF6B 2018-10-05 08:12:13 20.6 34 19.5
003BCF6B 2018-10-05 07:05:46 20.6 34 13.8
003BCF6B 2018-10-05 05:59:18 20.6 34 14
003BCF6B 2018-10-05 04:52:48 20.6 34 14.1
003BCF6B 2018-10-05 03:46:23 20.8 34 14.5
003BCF6B 2018-10-05 02:39:50 20.8 34 14.8
003BCF6B 2018-10-05 01:33:21 20.8 34 15
003BCF6B 2018-10-05 00:26:49 20.8 34 14.6
003BCF6B 2018-10-04 23:20:18 20.8 34 15.1
003BCF6B 2018-10-04 22:13:50 20.8 34 15.6
003BCF6B 2018-10-04 21:07:19 20.9 34 16.1
003BCF6B 2018-10-04 20:00:53 20.9 34 16.6
003BCF6B 2018-10-04 18:54:27 21 34 17.2
003BCF6B 2018-10-04 17:47:56 21.1 35 17.6
003BCF6B 2018-10-04 16:41:22 21.2 36 19.9
003BCF6B 2018-10-04 15:34:53 20.6 38 0